createdAt,value
2023-02-27T00:01:34.610Z,100.00
2023-02-27T00:04:04.150Z,100.00
2023-02-27T00:06:32.611Z,100.00
2023-02-27T00:09:01.006Z,100.00
2023-02-27T00:11:30.040Z,100.00
2023-02-27T00:13:59.412Z,100.00
2023-02-27T00:16:33.148Z,100.00
2023-02-27T00:19:04.615Z,100.00
2023-02-27T00:21:32.708Z,100.00
2023-02-27T00:24:10.930Z,100.00
2023-02-27T00:26:39.133Z,100.00
2023-02-27T00:29:07.961Z,100.00
2023-02-27T00:31:36.754Z,100.00
2023-02-27T00:34:05.101Z,100.00
2023-02-27T00:36:33.616Z,100.00
2023-02-27T00:39:01.974Z,100.00
2023-02-27T00:41:30.986Z,100.00
2023-02-27T00:44:02.035Z,100.00
2023-02-27T00:46:31.039Z,100.00
2023-02-27T00:48:59.446Z,100.00
2023-02-27T00:51:28.364Z,100.00
2023-02-27T00:53:57.323Z,100.00
2023-02-27T00:56:25.925Z,100.00
2023-02-27T00:58:54.200Z,100.00
2023-02-27T01:01:23.292Z,100.00
2023-02-27T01:03:52.216Z,100.00
2023-02-27T01:06:21.217Z,100.00
2023-02-27T01:08:50.000Z,100.00
2023-02-27T01:11:22.626Z,100.00
2023-02-27T01:13:51.121Z,100.00
2023-02-27T01:16:19.604Z,100.00
2023-02-27T01:18:48.692Z,100.00
2023-02-27T01:21:17.695Z,100.00
2023-02-27T01:23:51.522Z,100.00
2023-02-27T01:26:20.942Z,100.00
2023-02-27T01:28:49.210Z,100.00
2023-02-27T01:31:18.130Z,100.00
2023-02-27T01:33:46.409Z,100.00
2023-02-27T01:36:16.864Z,100.00
2023-02-27T01:38:45.231Z,100.00
2023-02-27T01:41:15.779Z,100.00
2023-02-27T01:44:13.868Z,100.00
2023-02-27T01:46:45.567Z,100.00
2023-02-27T01:49:21.039Z,100.00
2023-02-27T01:52:05.942Z,100.00
2023-02-27T01:54:39.881Z,100.00
2023-02-27T01:57:08.081Z,100.00
2023-02-27T01:59:39.756Z,100.00
2023-02-27T02:02:11.790Z,100.00
2023-02-27T02:04:40.102Z,100.00
2023-02-27T02:07:10.281Z,100.00
2023-02-27T02:09:45.409Z,100.00
2023-02-27T02:12:14.402Z,100.00
2023-02-27T02:14:44.530Z,100.00
2023-02-27T02:17:48.195Z,100.00
2023-02-27T02:20:45.843Z,100.00
2023-02-27T02:23:35.906Z,100.00
2023-02-27T02:26:27.795Z,100.00
2023-02-27T02:29:10.818Z,100.00
2023-02-27T02:31:53.944Z,100.00
2023-02-27T02:34:52.250Z,100.00
2023-02-27T02:37:59.926Z,100.00
2023-02-27T02:40:35.361Z,100.00
2023-02-27T02:43:12.733Z,100.00
2023-02-27T02:46:13.690Z,100.00
2023-02-27T02:49:33.144Z,100.00
2023-02-27T02:52:02.864Z,100.00
2023-02-27T02:54:46.565Z,100.00
2023-02-27T02:57:21.617Z,100.00
2023-02-27T02:59:57.497Z,100.00
2023-02-27T03:05:13.834Z,100.00
2023-02-27T03:07:47.946Z,100.00
2023-02-27T03:10:19.947Z,100.00
2023-02-27T03:13:09.394Z,100.00
2023-02-27T03:15:48.075Z,100.00
2023-02-27T03:18:20.790Z,100.00
2023-02-27T03:21:02.538Z,100.00
2023-02-27T03:23:34.902Z,100.00
2023-02-27T03:26:04.937Z,100.00
2023-02-27T03:28:36.001Z,100.00
2023-02-27T03:31:11.726Z,100.00
2023-02-27T03:33:47.637Z,100.00
2023-02-27T03:36:37.234Z,100.00
2023-02-27T03:39:28.837Z,100.00
2023-02-27T03:42:01.407Z,100.00
2023-02-27T03:45:16.756Z,100.00
2023-02-27T03:47:45.335Z,100.00
2023-02-27T03:50:14.040Z,100.00
2023-02-27T03:52:43.054Z,100.00
2023-02-27T03:55:14.194Z,100.00
2023-02-27T03:57:42.685Z,100.00
2023-02-27T04:00:17.204Z,100.00
2023-02-27T04:02:50.567Z,100.00
2023-02-27T04:05:21.427Z,100.00
2023-02-27T04:08:09.202Z,100.00
2023-02-27T04:10:55.090Z,100.00
2023-02-27T04:13:53.922Z,100.00
2023-02-27T04:16:34.014Z,100.00
2023-02-27T04:19:44.219Z,100.00
2023-02-27T04:22:22.449Z,100.00
2023-02-27T04:24:56.798Z,100.00
2023-02-27T04:27:34.417Z,100.00
2023-02-27T04:30:25.320Z,100.00
2023-02-27T04:33:14.668Z,100.00
2023-02-27T04:36:05.991Z,100.00
2023-02-27T04:39:01.188Z,100.00
2023-02-27T04:41:45.589Z,100.00
2023-02-27T04:44:14.087Z,100.00
2023-02-27T04:46:43.090Z,100.00
2023-02-27T04:49:33.121Z,100.00
2023-02-27T04:52:06.851Z,100.00
2023-02-27T04:55:07.552Z,100.00
2023-02-27T04:58:00.890Z,100.00
2023-02-27T05:00:29.334Z,100.00
2023-02-27T05:03:19.653Z,100.00
2023-02-27T05:05:48.140Z,100.00
2023-02-27T05:08:19.740Z,100.00
2023-02-27T05:10:53.855Z,100.00
2023-02-27T05:13:35.199Z,100.00
2023-02-27T05:16:20.353Z,100.00
2023-02-27T05:18:49.124Z,100.00
2023-02-27T05:21:23.266Z,100.00
2023-02-27T05:24:06.864Z,100.00
2023-02-27T05:27:06.374Z,100.00
2023-02-27T05:29:59.298Z,100.00
2023-02-27T05:32:36.176Z,100.00
2023-02-27T05:35:16.986Z,100.00
2023-02-27T05:38:03.433Z,100.00
2023-02-27T05:40:38.226Z,100.00
2023-02-27T05:43:09.709Z,100.00
2023-02-27T05:45:39.373Z,100.00
2023-02-27T05:48:26.164Z,100.00
2023-02-27T05:50:54.369Z,100.00
2023-02-27T05:53:25.239Z,100.00
2023-02-27T05:55:54.472Z,100.00
2023-02-27T05:58:31.134Z,100.00
2023-02-27T06:01:01.177Z,100.00
2023-02-27T06:03:30.238Z,100.00
2023-02-27T06:05:59.333Z,100.00
2023-02-27T06:08:27.839Z,100.00
2023-02-27T06:11:00.374Z,100.00
2023-02-27T06:13:29.704Z,100.00
2023-02-27T06:15:57.928Z,100.00
2023-02-27T06:18:26.176Z,100.00
2023-02-27T06:20:55.215Z,100.00
2023-02-27T06:23:25.542Z,100.00
2023-02-27T06:25:54.541Z,100.00
2023-02-27T06:28:22.871Z,100.00
2023-02-27T06:30:55.801Z,100.00
2023-02-27T06:33:26.071Z,100.00
2023-02-27T06:35:55.863Z,100.00
2023-02-27T06:38:25.217Z,100.00
2023-02-27T06:40:54.030Z,100.00
2023-02-27T06:43:23.282Z,100.00
2023-02-27T06:45:55.468Z,100.00
2023-02-27T06:48:23.944Z,100.00
2023-02-27T06:50:53.723Z,100.00
2023-02-27T06:53:23.342Z,100.00
2023-02-27T06:55:52.301Z,100.00
2023-02-27T06:58:21.312Z,100.00
2023-02-27T07:00:49.558Z,100.00
2023-02-27T07:03:17.866Z,100.00
2023-02-27T07:05:49.985Z,100.00
2023-02-27T07:08:19.497Z,100.00
2023-02-27T07:10:49.209Z,100.00
2023-02-27T07:13:19.682Z,100.00
2023-02-27T07:15:49.171Z,100.00
2023-02-27T07:18:17.326Z,100.00
2023-02-27T07:20:45.725Z,100.00
2023-02-27T07:23:14.702Z,100.00
2023-02-27T07:25:42.908Z,100.00
2023-02-27T07:28:11.567Z,100.00
2023-02-27T07:30:40.838Z,100.00
2023-02-27T07:33:09.364Z,100.00
2023-02-27T07:35:38.015Z,100.00
2023-02-27T07:38:06.966Z,100.00
2023-02-27T07:40:35.566Z,100.00
2023-02-27T07:43:05.740Z,100.00
2023-02-27T07:45:34.075Z,100.00
2023-02-27T07:48:02.283Z,100.00
2023-02-27T07:50:30.903Z,100.00
2023-02-27T07:52:59.704Z,100.00
2023-02-27T07:55:27.885Z,100.00
2023-02-27T07:58:02.741Z,100.00
2023-02-27T08:00:32.360Z,100.00
2023-02-27T08:03:00.892Z,100.00
2023-02-27T08:05:30.200Z,100.00
2023-02-27T08:07:58.406Z,100.00
2023-02-27T08:10:27.780Z,100.00
2023-02-27T08:12:56.611Z,100.00
2023-02-27T08:15:24.804Z,100.00
2023-02-27T08:17:53.090Z,100.00
2023-02-27T08:20:22.855Z,100.00
2023-02-27T08:22:51.122Z,100.00
2023-02-27T08:25:20.452Z,100.00
2023-02-27T08:27:48.651Z,100.00
2023-02-27T08:30:17.166Z,100.00
2023-02-27T08:32:46.183Z,100.00
2023-02-27T08:35:14.675Z,100.00
2023-02-27T08:37:42.969Z,100.00
2023-02-27T08:40:11.877Z,100.00
2023-02-27T08:42:40.392Z,100.00
2023-02-27T08:45:11.892Z,100.00
2023-02-27T08:47:42.908Z,100.00
2023-02-27T08:50:14.883Z,100.00
2023-02-27T08:52:43.187Z,100.00
2023-02-27T08:55:11.638Z,100.00
2023-02-27T08:57:40.993Z,100.00
2023-02-27T09:00:10.783Z,100.00
2023-02-27T09:02:39.214Z,100.00
2023-02-27T09:05:08.100Z,100.00
2023-02-27T09:07:36.384Z,100.00
2023-02-27T09:10:07.250Z,100.00
2023-02-27T09:12:37.626Z,100.00
2023-02-27T09:15:11.624Z,100.00
2023-02-27T09:17:42.002Z,100.00
2023-02-27T09:20:12.327Z,100.00
2023-02-27T09:22:41.483Z,100.00
2023-02-27T09:25:12.285Z,99.71
2023-02-27T09:27:41.308Z,99.26
2023-02-27T09:30:11.628Z,99.31
2023-02-27T09:32:40.011Z,99.24
2023-02-27T09:35:09.469Z,98.34
2023-02-27T09:37:37.881Z,98.14
2023-02-27T09:40:07.714Z,97.90
2023-02-27T09:42:38.481Z,98.17
2023-02-27T09:45:07.584Z,98.21
2023-02-27T09:47:38.143Z,99.02
2023-02-27T09:50:17.846Z,98.80
2023-02-27T09:52:46.660Z,98.95
2023-02-27T09:55:19.361Z,99.27
2023-02-27T09:58:02.180Z,99.40
2023-02-27T10:00:39.436Z,98.45
2023-02-27T10:03:43.482Z,98.09
2023-02-27T10:06:37.994Z,98.53
2023-02-27T10:09:19.244Z,97.95
2023-02-27T10:11:53.641Z,98.14
2023-02-27T10:14:38.463Z,98.36
2023-02-27T10:17:22.959Z,98.34
2023-02-27T10:19:52.340Z,98.55
2023-02-27T10:22:26.838Z,98.72
2023-02-27T10:25:31.781Z,97.72
2023-02-27T10:28:09.117Z,97.58
2023-02-27T10:30:37.215Z,98.32
2023-02-27T10:33:10.710Z,97.83
2023-02-27T10:35:40.115Z,97.24
2023-02-27T10:38:12.322Z,98.03
2023-02-27T10:40:40.981Z,98.14
2023-02-27T10:43:09.143Z,97.79
2023-02-27T10:45:38.931Z,97.88
2023-02-27T10:48:14.953Z,98.39
2023-02-27T10:50:45.290Z,99.06
2023-02-27T10:53:25.357Z,99.81
2023-02-27T10:56:07.113Z,99.66
2023-02-27T10:58:35.813Z,99.73
2023-02-27T11:01:06.168Z,99.93
2023-02-27T11:03:41.066Z,99.70
2023-02-27T11:06:25.105Z,98.25
2023-02-27T11:09:12.820Z,97.16
2023-02-27T11:11:42.655Z,94.82
2023-02-27T11:14:28.104Z,94.97
2023-02-27T11:16:58.419Z,96.28
2023-02-27T11:19:35.262Z,97.25
2023-02-27T11:22:16.282Z,97.64
2023-02-27T11:24:49.515Z,96.89
2023-02-27T11:27:29.579Z,96.28
2023-02-27T11:30:00.422Z,96.91
2023-02-27T11:32:36.268Z,97.71
2023-02-27T11:35:05.665Z,97.62
2023-02-27T11:37:34.896Z,97.97
2023-02-27T11:40:09.581Z,97.90
2023-02-27T11:42:42.021Z,98.04
2023-02-27T11:46:11.942Z,99.23
2023-02-27T11:48:20.834Z,99.73
2023-02-27T11:50:52.317Z,100.00
2023-02-27T11:53:43.923Z,100.00
2023-02-27T11:56:27.665Z,100.00
2023-02-27T11:58:55.820Z,100.00
2023-02-27T12:01:27.902Z,100.00
2023-02-27T12:04:01.841Z,100.00
2023-02-27T12:06:38.168Z,100.00
2023-02-27T12:09:15.982Z,100.00
2023-02-27T12:11:44.612Z,100.00
2023-02-27T12:14:21.304Z,100.00
2023-02-27T12:17:10.178Z,100.00
2023-02-27T12:19:42.115Z,100.00
2023-02-27T12:22:22.758Z,100.00
2023-02-27T12:24:53.257Z,100.00
2023-02-27T12:27:38.467Z,100.00
2023-02-27T12:30:15.404Z,100.00
2023-02-27T12:33:02.465Z,100.00
2023-02-27T12:35:33.195Z,100.00
2023-02-27T12:38:01.793Z,100.00
2023-02-27T12:40:37.703Z,100.00
2023-02-27T12:43:14.868Z,100.00
2023-02-27T12:45:46.313Z,100.00
2023-02-27T12:48:36.901Z,100.00
2023-02-27T12:51:17.371Z,100.00
2023-02-27T12:53:58.333Z,100.00
2023-02-27T12:56:47.915Z,100.00
2023-02-27T12:59:29.565Z,100.00
2023-02-27T13:02:16.108Z,100.00
2023-02-27T13:04:46.225Z,100.00
2023-02-27T13:07:26.767Z,100.00
2023-02-27T13:10:01.259Z,100.00
2023-02-27T13:12:39.014Z,100.00
2023-02-27T13:15:48.637Z,100.00
2023-02-27T13:18:42.077Z,100.00
2023-02-27T13:21:17.526Z,100.00
2023-02-27T13:23:49.427Z,100.00
2023-02-27T13:26:25.884Z,100.00
2023-02-27T13:28:55.241Z,100.00
2023-02-27T13:31:38.614Z,100.00
2023-02-27T13:34:18.881Z,97.54
2023-02-27T13:36:51.278Z,95.85
2023-02-27T13:39:41.567Z,95.79
2023-02-27T13:42:30.212Z,97.12
2023-02-27T13:45:06.344Z,97.79
2023-02-27T13:47:37.730Z,97.99
2023-02-27T13:50:18.441Z,98.37
2023-02-27T13:52:47.027Z,97.91
2023-02-27T13:55:28.646Z,98.98
2023-02-27T13:58:00.033Z,99.89
2023-02-27T14:00:32.993Z,100.00
2023-02-27T14:03:21.573Z,99.75
2023-02-27T14:05:51.068Z,99.58
2023-02-27T14:08:29.266Z,98.63
2023-02-27T14:11:02.802Z,97.85
2023-02-27T14:13:54.713Z,97.22
2023-02-27T14:16:38.286Z,97.58
2023-02-27T14:19:15.700Z,97.75
2023-02-27T14:22:01.174Z,97.95
2023-02-27T14:24:42.896Z,98.11
2023-02-27T14:27:19.379Z,98.09
2023-02-27T14:29:48.003Z,98.72
2023-02-27T14:32:22.173Z,98.53
2023-02-27T14:34:51.239Z,99.44
2023-02-27T14:37:23.411Z,98.95
2023-02-27T14:39:55.335Z,99.59
2023-02-27T14:43:03.614Z,100.00
2023-02-27T14:45:34.052Z,100.00
2023-02-27T14:48:02.272Z,100.00
2023-02-27T14:50:34.190Z,100.00
2023-02-27T14:53:06.409Z,100.00
2023-02-27T14:55:37.212Z,100.00
2023-02-27T14:58:26.466Z,100.00
2023-02-27T15:01:06.597Z,100.00
2023-02-27T15:03:45.178Z,100.00
2023-02-27T15:06:28.411Z,100.00
2023-02-27T15:08:57.393Z,100.00
2023-02-27T15:11:25.971Z,100.00
2023-02-27T15:14:02.567Z,100.00
2023-02-27T15:16:39.293Z,100.00
2023-02-27T15:19:18.284Z,100.00
2023-02-27T15:24:31.365Z,100.00
2023-02-27T15:27:03.690Z,100.00
2023-02-27T15:29:42.476Z,100.00
2023-02-27T15:32:27.021Z,100.00
2023-02-27T15:34:59.436Z,100.00
2023-02-27T15:37:29.913Z,100.00
2023-02-27T15:39:58.723Z,100.00
2023-02-27T15:42:37.647Z,100.00
2023-02-27T15:45:07.113Z,100.00
2023-02-27T15:47:35.243Z,100.00
2023-02-27T15:50:10.691Z,100.00
2023-02-27T15:52:50.543Z,100.00
2023-02-27T15:55:25.712Z,100.00
2023-02-27T15:58:03.051Z,100.00
2023-02-27T16:00:32.608Z,100.00
2023-02-27T16:03:00.901Z,100.00
2023-02-27T16:05:36.412Z,100.00
2023-02-27T16:08:05.831Z,100.00
2023-02-27T16:10:40.931Z,100.00
2023-02-27T16:13:27.751Z,100.00
2023-02-27T16:16:21.391Z,100.00
2023-02-27T16:18:57.314Z,100.00
2023-02-27T16:21:26.660Z,100.00
2023-02-27T16:23:55.096Z,100.00
2023-02-27T16:26:32.893Z,100.00
2023-02-27T16:29:17.934Z,100.00
2023-02-27T16:31:47.779Z,100.00
2023-02-27T16:34:20.663Z,100.00
2023-02-27T16:36:54.434Z,100.00
2023-02-27T16:39:22.460Z,100.00
2023-02-27T16:41:53.232Z,100.00
2023-02-27T16:44:22.574Z,100.00
2023-02-27T16:46:52.343Z,100.00
2023-02-27T16:49:22.431Z,100.00
2023-02-27T16:51:50.618Z,100.00
2023-02-27T16:54:19.063Z,100.00
2023-02-27T16:56:47.688Z,100.00
2023-02-27T16:59:36.184Z,100.00
2023-02-27T17:02:06.781Z,100.00
2023-02-27T17:04:36.194Z,100.00
2023-02-27T17:07:06.786Z,100.00
2023-02-27T17:09:35.693Z,100.00
2023-02-27T17:12:04.488Z,100.00
2023-02-27T17:14:32.636Z,100.00
2023-02-27T17:17:01.146Z,100.00
2023-02-27T17:19:29.775Z,100.00
2023-02-27T17:21:59.194Z,100.00
2023-02-27T17:24:27.902Z,100.00
2023-02-27T17:26:56.234Z,100.00
2023-02-27T17:29:28.799Z,100.00
2023-02-27T17:31:57.563Z,100.00
2023-02-27T17:34:25.866Z,100.00
2023-02-27T17:36:54.794Z,100.00
2023-02-27T17:39:22.911Z,100.00
2023-02-27T17:41:52.904Z,100.00
2023-02-27T17:44:21.638Z,100.00
2023-02-27T17:46:50.264Z,100.00
2023-02-27T17:49:18.574Z,100.00
2023-02-27T17:51:47.187Z,100.00
2023-02-27T17:54:15.567Z,100.00
2023-02-27T17:56:43.856Z,100.00
2023-02-27T17:59:12.165Z,100.00
2023-02-27T18:01:40.257Z,100.00
2023-02-27T18:04:25.773Z,100.00
2023-02-27T18:06:54.012Z,100.00
2023-02-27T18:09:22.896Z,100.00
2023-02-27T18:11:52.330Z,100.00
2023-02-27T18:14:20.565Z,100.00
2023-02-27T18:16:49.869Z,100.00
2023-02-27T18:19:18.553Z,100.00
2023-02-27T18:21:47.308Z,100.00
2023-02-27T18:24:15.887Z,100.00
2023-02-27T18:26:44.082Z,100.00
2023-02-27T18:29:14.096Z,100.00
2023-02-27T18:31:44.365Z,100.00
2023-02-27T18:34:12.504Z,100.00
2023-02-27T18:36:40.615Z,100.00
2023-02-27T18:39:08.993Z,100.00
2023-02-27T18:41:39.057Z,100.00
2023-02-27T18:44:09.204Z,100.00
2023-02-27T18:46:38.112Z,100.00
2023-02-27T18:49:06.523Z,100.00
2023-02-27T18:51:34.994Z,100.00
2023-02-27T18:54:05.160Z,100.00
2023-02-27T18:56:35.837Z,100.00
2023-02-27T18:59:06.676Z,100.00
2023-02-27T19:01:36.664Z,100.00
2023-02-27T19:04:06.317Z,100.00
2023-02-27T19:06:40.548Z,100.00
2023-02-27T19:09:10.762Z,100.00
2023-02-27T19:11:38.832Z,100.00
2023-02-27T19:14:12.143Z,100.00
2023-02-27T19:16:42.211Z,100.00
2023-02-27T19:19:12.008Z,100.00
2023-02-27T19:21:41.004Z,100.00
2023-02-27T19:24:10.230Z,100.00
2023-02-27T19:26:38.671Z,100.00
2023-02-27T19:29:12.721Z,100.00
2023-02-27T19:31:41.716Z,100.00
2023-02-27T19:34:10.662Z,100.00
2023-02-27T19:36:42.589Z,100.00
2023-02-27T19:39:11.325Z,100.00
2023-02-27T19:41:39.602Z,100.00
2023-02-27T19:44:08.446Z,100.00
2023-02-27T19:46:36.769Z,100.00
2023-02-27T19:49:05.442Z,100.00
2023-02-27T19:51:39.037Z,100.00
2023-02-27T19:54:07.054Z,100.00
2023-02-27T19:56:35.001Z,100.00
2023-02-27T19:59:03.890Z,100.00
2023-02-27T20:01:33.898Z,100.00
2023-02-27T20:04:04.236Z,100.00
2023-02-27T20:06:34.082Z,100.00
2023-02-27T20:09:02.293Z,100.00
2023-02-27T20:11:31.367Z,100.00
2023-02-27T20:13:59.988Z,100.00
2023-02-27T20:16:30.615Z,100.00
2023-02-27T20:18:59.363Z,100.00
2023-02-27T20:21:29.560Z,100.00
2023-02-27T20:24:00.816Z,100.00
2023-02-27T20:26:37.037Z,100.00
2023-02-27T20:29:13.668Z,100.00
2023-02-27T20:31:43.948Z,100.00
2023-02-27T20:34:13.020Z,100.00
2023-02-27T20:36:41.487Z,100.00
2023-02-27T20:39:12.314Z,100.00
2023-02-27T20:41:41.222Z,100.00
2023-02-27T20:44:11.586Z,100.00
2023-02-27T20:46:40.954Z,100.00
2023-02-27T20:49:15.747Z,100.00
2023-02-27T20:51:45.001Z,100.00
2023-02-27T20:54:16.381Z,100.00
2023-02-27T20:56:44.520Z,100.00
2023-02-27T20:59:14.592Z,100.00
2023-02-27T21:01:51.527Z,100.00
2023-02-27T21:04:20.456Z,100.00
2023-02-27T21:06:50.242Z,100.00
2023-02-27T21:09:18.973Z,100.00
2023-02-27T21:11:47.148Z,100.00
2023-02-27T21:14:15.863Z,100.00
2023-02-27T21:16:44.279Z,100.00
2023-02-27T21:19:12.594Z,100.00
2023-02-27T21:21:40.991Z,100.00
2023-02-27T21:24:09.493Z,100.00
2023-02-27T21:26:38.703Z,100.00
2023-02-27T21:29:12.161Z,100.00
2023-02-27T21:31:41.717Z,100.00
2023-02-27T21:34:12.600Z,100.00
2023-02-27T21:36:42.497Z,100.00
2023-02-27T21:39:30.470Z,100.00
2023-02-27T21:42:01.539Z,100.00
2023-02-27T21:44:29.928Z,100.00
2023-02-27T21:47:10.443Z,100.00
2023-02-27T21:49:39.382Z,100.00
2023-02-27T21:52:08.534Z,100.00
2023-02-27T21:54:38.868Z,100.00
2023-02-27T21:57:07.000Z,100.00
2023-02-27T21:59:35.065Z,100.00
2023-02-27T22:02:03.413Z,100.00
2023-02-27T22:04:33.015Z,100.00
2023-02-27T22:07:01.155Z,100.00
2023-02-27T22:09:32.503Z,100.00
2023-02-27T22:12:01.880Z,100.00
2023-02-27T22:14:30.126Z,100.00
2023-02-27T22:16:59.152Z,100.00
2023-02-27T22:19:27.743Z,100.00
2023-02-27T22:21:55.944Z,100.00
2023-02-27T22:24:24.930Z,100.00
2023-02-27T22:26:53.252Z,100.00
2023-02-27T22:29:21.465Z,100.00
2023-02-27T22:31:50.338Z,100.00
2023-02-27T22:34:18.981Z,100.00
2023-02-27T22:36:52.940Z,100.00
2023-02-27T22:39:27.308Z,100.00
2023-02-27T22:41:56.886Z,100.00
2023-02-27T22:44:25.352Z,100.00
2023-02-27T22:46:54.700Z,100.00
2023-02-27T22:49:23.676Z,100.00
2023-02-27T22:51:52.343Z,100.00
2023-02-27T22:54:21.704Z,100.00
2023-02-27T22:56:52.761Z,100.00
2023-02-27T22:59:30.524Z,100.00
2023-02-27T23:01:59.317Z,100.00
2023-02-27T23:04:27.510Z,100.00
2023-02-27T23:06:56.431Z,100.00
2023-02-27T23:09:26.165Z,100.00
2023-02-27T23:11:55.105Z,100.00
2023-02-27T23:14:23.557Z,100.00
2023-02-27T23:16:51.846Z,100.00
2023-02-27T23:19:21.105Z,100.00
2023-02-27T23:21:54.741Z,100.00
2023-02-27T23:24:25.081Z,100.00
2023-02-27T23:26:53.283Z,100.00
2023-02-27T23:29:22.013Z,100.00
2023-02-27T23:31:50.605Z,100.00
2023-02-27T23:34:19.854Z,100.00
2023-02-27T23:36:48.610Z,100.00
2023-02-27T23:39:16.899Z,100.00
2023-02-27T23:41:45.193Z,100.00
2023-02-27T23:44:13.390Z,100.00
2023-02-27T23:46:42.497Z,100.00
2023-02-27T23:49:10.796Z,100.00
2023-02-27T23:51:39.509Z,100.00
2023-02-27T23:54:07.803Z,100.00
2023-02-27T23:56:39.323Z,100.00
2023-02-27T23:59:07.597Z,100.00
